createdAt,value
2023-01-29T00:02:08.720Z,-1.47
2023-01-29T00:04:35.180Z,-1.42
2023-01-29T00:07:12.375Z,-1.39
2023-01-29T00:09:38.954Z,-1.37
2023-01-29T00:12:05.376Z,-1.33
2023-01-29T00:14:31.779Z,-1.39
2023-01-29T00:16:58.164Z,-1.44
2023-01-29T00:19:28.690Z,-1.46
2023-01-29T00:21:55.123Z,-1.45
2023-01-29T00:24:21.856Z,-1.50
2023-01-29T00:26:54.107Z,-1.41
2023-01-29T00:29:21.996Z,-1.66
2023-01-29T00:31:49.493Z,-1.65
2023-01-29T00:34:15.957Z,-1.47
2023-01-29T00:36:45.551Z,-1.60
2023-01-29T00:39:11.922Z,-1.51
2023-01-29T00:41:56.793Z,-1.53
2023-01-29T00:44:41.698Z,-1.44
2023-01-29T00:47:28.095Z,-1.43
2023-01-29T00:49:54.717Z,-1.45
2023-01-29T00:52:26.864Z,-1.46
2023-01-29T00:54:55.827Z,-1.47
2023-01-29T00:57:22.464Z,-1.40
2023-01-29T00:59:55.232Z,-1.34
2023-01-29T01:02:40.718Z,-1.51
2023-01-29T01:05:13.989Z,-1.48
2023-01-29T01:07:41.252Z,-1.53
2023-01-29T01:10:23.215Z,-1.40
2023-01-29T01:12:57.910Z,-1.44
2023-01-29T01:15:25.636Z,-1.62
2023-01-29T01:17:55.931Z,-1.58
2023-01-29T01:20:22.705Z,-1.56
2023-01-29T01:22:49.512Z,-1.53
2023-01-29T01:25:16.171Z,-1.51
2023-01-29T01:27:43.531Z,-1.48
2023-01-29T01:30:12.103Z,-1.42
2023-01-29T01:32:39.939Z,-1.80
2023-01-29T01:35:06.755Z,-1.64
2023-01-29T01:37:33.437Z,-1.66
2023-01-29T01:39:59.795Z,-1.58
2023-01-29T01:42:32.329Z,-1.69
2023-01-29T01:45:04.842Z,-1.68
2023-01-29T01:47:41.867Z,-1.62
2023-01-29T01:50:22.057Z,-1.58
2023-01-29T01:52:52.036Z,-1.54
2023-01-29T01:55:21.645Z,-1.60
2023-01-29T01:57:50.576Z,-1.58
2023-01-29T02:00:18.435Z,-1.60
2023-01-29T02:03:04.729Z,-1.40
2023-01-29T02:05:51.067Z,-1.49
2023-01-29T02:08:44.838Z,-1.43
2023-01-29T02:11:11.409Z,-1.48
2023-01-29T02:13:37.802Z,-1.62
2023-01-29T02:16:04.272Z,-1.77
2023-01-29T02:18:37.992Z,-1.77
2023-01-29T02:21:25.065Z,-1.59
2023-01-29T02:24:11.458Z,-1.59
2023-01-29T02:26:50.057Z,-1.56
2023-01-29T02:29:22.673Z,-1.72
2023-01-29T02:31:57.191Z,-1.63
2023-01-29T02:34:26.649Z,-1.71
2023-01-29T02:36:56.894Z,-1.51
2023-01-29T02:39:28.855Z,-1.66
2023-01-29T02:42:00.690Z,-1.68
2023-01-29T02:44:47.292Z,-1.66
2023-01-29T02:47:20.919Z,-1.73
2023-01-29T02:49:57.703Z,-1.53
2023-01-29T02:52:31.826Z,-1.56
2023-01-29T02:55:13.619Z,-1.63
2023-01-29T02:57:42.236Z,-1.65
2023-01-29T03:00:24.371Z,-1.73
2023-01-29T03:02:59.430Z,-1.73
2023-01-29T03:05:32.559Z,-1.63
2023-01-29T03:08:02.417Z,-1.69
2023-01-29T03:10:31.949Z,-1.80
2023-01-29T03:13:02.343Z,-1.70
2023-01-29T03:15:31.040Z,-1.75
2023-01-29T03:18:05.168Z,-1.93
2023-01-29T03:20:38.317Z,-1.92
2023-01-29T03:23:14.441Z,-1.94
2023-01-29T03:26:01.466Z,-2.01
2023-01-29T03:28:48.409Z,-2.03
2023-01-29T03:31:34.055Z,-2.05
2023-01-29T03:34:05.352Z,-2.09
2023-01-29T03:36:39.909Z,-2.07
2023-01-29T03:39:11.429Z,-2.08
2023-01-29T03:41:47.694Z,-2.30
2023-01-29T03:44:32.815Z,-2.15
2023-01-29T03:47:20.134Z,-2.17
2023-01-29T03:49:53.508Z,-2.20
2023-01-29T03:52:43.562Z,-2.14
2023-01-29T03:55:15.510Z,-2.09
2023-01-29T03:57:45.740Z,-2.14
2023-01-29T04:00:21.366Z,-2.37
2023-01-29T04:02:52.704Z,-2.26
2023-01-29T04:05:24.526Z,-2.22
2023-01-29T04:07:54.459Z,-2.30
2023-01-29T04:10:24.059Z,-2.31
2023-01-29T04:12:54.076Z,-2.29
2023-01-29T04:15:22.403Z,-2.13
2023-01-29T04:17:50.327Z,-2.26
2023-01-29T04:20:17.021Z,-2.38
2023-01-29T04:22:46.083Z,-2.36
2023-01-29T04:25:19.145Z,-2.42
2023-01-29T04:27:57.168Z,-2.62
2023-01-29T04:30:26.985Z,-2.51
2023-01-29T04:32:57.994Z,-2.45
2023-01-29T04:35:29.307Z,-2.60
2023-01-29T04:38:08.322Z,-2.46
2023-01-29T04:40:34.660Z,-2.55
2023-01-29T04:43:09.527Z,-2.51
2023-01-29T04:45:36.950Z,-2.45
2023-01-29T04:48:21.385Z,-2.47
2023-01-29T04:51:07.773Z,-2.43
2023-01-29T04:54:11.029Z,-2.60
2023-01-29T04:56:43.052Z,-2.60
2023-01-29T04:59:14.658Z,-2.34
2023-01-29T05:01:41.257Z,-2.47
2023-01-29T05:04:10.552Z,-2.43
2023-01-29T05:06:38.059Z,-2.60
2023-01-29T05:09:04.944Z,-2.62
2023-01-29T05:11:32.990Z,-2.66
2023-01-29T05:14:01.162Z,-2.55
2023-01-29T05:16:41.945Z,-2.48
2023-01-29T05:19:13.067Z,-2.52
2023-01-29T05:21:41.168Z,-2.53
2023-01-29T05:24:18.556Z,-2.63
2023-01-29T05:27:05.767Z,-2.51
2023-01-29T05:29:32.154Z,-2.51
2023-01-29T05:31:58.519Z,-2.61
2023-01-29T05:34:25.166Z,-2.41
2023-01-29T05:36:51.480Z,-2.46
2023-01-29T05:39:17.875Z,-2.38
2023-01-29T05:41:44.221Z,-2.35
2023-01-29T05:44:11.895Z,-2.37
2023-01-29T05:46:38.737Z,-2.46
2023-01-29T05:49:05.649Z,-2.52
2023-01-29T05:51:32.178Z,-2.41
2023-01-29T05:54:04.798Z,-2.41
2023-01-29T05:56:31.247Z,-2.46
2023-01-29T05:58:57.936Z,-2.43
2023-01-29T06:01:25.644Z,-2.66
2023-01-29T06:03:53.230Z,-2.62
2023-01-29T06:06:19.577Z,-2.39
2023-01-29T06:08:46.037Z,-2.42
2023-01-29T06:11:13.104Z,-2.70
2023-01-29T06:13:39.503Z,-2.51
2023-01-29T06:16:06.829Z,-2.45
2023-01-29T06:18:33.205Z,-2.35
2023-01-29T06:21:03.733Z,-2.44
2023-01-29T06:23:30.416Z,-2.44
2023-01-29T06:26:06.742Z,-2.45
2023-01-29T06:28:33.315Z,-2.76
2023-01-29T06:31:11.945Z,-2.60
2023-01-29T06:33:42.972Z,-2.68
2023-01-29T06:36:16.548Z,-2.81
2023-01-29T06:38:42.975Z,-2.68
2023-01-29T06:41:25.832Z,-2.79
2023-01-29T06:43:52.207Z,-2.81
2023-01-29T06:46:24.474Z,-2.70
2023-01-29T06:48:50.891Z,-2.97
2023-01-29T06:51:17.345Z,-3.06
2023-01-29T06:53:46.048Z,-2.88
2023-01-29T06:56:13.177Z,-2.98
2023-01-29T06:58:39.529Z,-2.77
2023-01-29T07:01:07.246Z,-2.75
2023-01-29T07:03:34.698Z,-3.22
2023-01-29T07:06:01.332Z,-3.19
2023-01-29T07:08:28.732Z,-3.23
2023-01-29T07:11:01.308Z,-3.13
2023-01-29T07:13:27.848Z,-3.19
2023-01-29T07:15:54.185Z,-2.88
2023-01-29T07:18:20.589Z,-3.21
2023-01-29T07:20:46.956Z,-3.15
2023-01-29T07:23:13.581Z,-2.90
2023-01-29T07:25:40.587Z,-3.16
2023-01-29T07:28:09.317Z,-3.13
2023-01-29T07:30:36.008Z,-3.03
2023-01-29T07:33:08.169Z,-3.23
2023-01-29T07:35:40.723Z,-3.15
2023-01-29T07:38:07.444Z,-2.98
2023-01-29T07:40:33.919Z,-3.24
2023-01-29T07:43:01.307Z,-3.12
2023-01-29T07:45:32.091Z,-3.26
2023-01-29T07:48:13.738Z,-3.48
2023-01-29T07:50:40.306Z,-3.14
2023-01-29T07:53:07.040Z,-2.97
2023-01-29T07:55:33.839Z,-2.85
2023-01-29T07:58:01.588Z,-2.87
2023-01-29T08:00:28.199Z,-2.97
2023-01-29T08:03:06.666Z,-2.91
2023-01-29T08:05:33.450Z,-2.84
2023-01-29T08:08:06.428Z,-2.88
2023-01-29T08:10:46.422Z,-2.67
2023-01-29T08:13:12.897Z,-2.69
2023-01-29T08:15:45.302Z,-2.70
2023-01-29T08:18:11.968Z,-2.73
2023-01-29T08:20:38.396Z,-2.80
2023-01-29T08:23:06.365Z,-2.68
2023-01-29T08:25:35.624Z,-2.80
2023-01-29T08:28:02.016Z,-2.85
2023-01-29T08:30:30.500Z,-2.78
2023-01-29T08:32:56.887Z,-2.79
2023-01-29T08:35:23.588Z,-2.73
2023-01-29T08:37:59.161Z,-2.69
2023-01-29T08:40:26.326Z,-2.63
2023-01-29T08:43:06.290Z,-2.68
2023-01-29T08:45:35.622Z,-2.87
2023-01-29T08:48:02.243Z,-2.69
2023-01-29T08:50:43.740Z,-2.93
2023-01-29T08:53:10.353Z,-2.56
2023-01-29T08:55:38.004Z,-2.92
2023-01-29T08:58:05.481Z,-2.65
2023-01-29T09:00:32.898Z,-2.56
2023-01-29T09:03:00.890Z,-2.40
2023-01-29T09:05:28.146Z,-2.51
2023-01-29T09:07:57.492Z,-2.59
2023-01-29T09:10:23.836Z,-2.42
2023-01-29T09:13:00.155Z,-2.18
2023-01-29T09:15:26.480Z,-2.50
2023-01-29T09:17:52.974Z,-2.53
2023-01-29T09:20:19.663Z,-2.07
2023-01-29T09:22:46.795Z,-2.21
2023-01-29T09:25:39.192Z,-2.06
2023-01-29T09:28:06.323Z,-2.21
2023-01-29T09:30:34.603Z,-2.01
2023-01-29T09:33:01.439Z,-2.38
2023-01-29T09:35:27.809Z,-1.93
2023-01-29T09:37:54.248Z,-1.72
2023-01-29T09:40:25.994Z,-2.11
2023-01-29T09:42:57.795Z,-1.86
2023-01-29T09:45:26.431Z,-1.86
2023-01-29T09:47:55.928Z,-1.74
2023-01-29T09:50:33.988Z,-1.47
2023-01-29T09:53:11.312Z,-1.93
2023-01-29T09:55:49.744Z,-1.80
2023-01-29T09:58:22.883Z,-1.49
2023-01-29T10:01:12.365Z,-1.72
2023-01-29T10:03:48.766Z,-1.84
2023-01-29T10:06:40.777Z,-2.08
2023-01-29T10:09:25.856Z,-1.92
2023-01-29T10:11:58.327Z,-1.71
2023-01-29T10:14:27.971Z,-1.13
2023-01-29T10:17:12.869Z,-1.10
2023-01-29T10:19:42.711Z,-1.42
2023-01-29T10:22:21.351Z,-1.11
2023-01-29T10:24:50.483Z,-1.19
2023-01-29T10:27:19.336Z,-1.18
2023-01-29T10:29:49.107Z,-1.00
2023-01-29T10:32:17.673Z,-0.97
2023-01-29T10:34:54.717Z,-0.89
2023-01-29T10:37:41.234Z,-0.91
2023-01-29T10:40:26.087Z,-0.84
2023-01-29T10:43:06.833Z,-1.24
2023-01-29T10:45:58.003Z,-1.50
2023-01-29T10:48:30.404Z,-1.04
2023-01-29T10:51:05.662Z,-1.51
2023-01-29T10:53:39.801Z,-1.50
2023-01-29T10:56:22.980Z,-1.58
2023-01-29T10:58:59.410Z,-1.27
2023-01-29T11:01:27.081Z,-1.31
2023-01-29T11:03:58.654Z,-1.47
2023-01-29T11:06:28.240Z,-1.19
2023-01-29T11:09:28.919Z,-1.10
2023-01-29T11:11:58.673Z,-1.54
2023-01-29T11:14:38.299Z,-1.23
2023-01-29T11:17:05.153Z,-1.12
2023-01-29T11:19:41.977Z,-1.35
2023-01-29T11:22:20.125Z,-0.96
2023-01-29T11:25:07.357Z,-1.09
2023-01-29T11:27:35.566Z,-1.56
2023-01-29T11:30:02.119Z,-1.02
2023-01-29T11:32:30.129Z,-1.06
2023-01-29T11:35:19.303Z,-1.00
2023-01-29T11:37:46.545Z,-1.10
2023-01-29T11:40:19.028Z,-0.52
2023-01-29T11:42:54.454Z,-1.03
2023-01-29T11:45:38.671Z,-0.81
2023-01-29T11:48:05.086Z,-1.05
2023-01-29T11:50:33.809Z,-0.71
2023-01-29T11:53:01.287Z,-0.77
2023-01-29T11:55:50.360Z,-0.73
2023-01-29T11:58:21.380Z,-0.34
2023-01-29T12:00:50.748Z,-0.03
2023-01-29T12:03:37.215Z,-0.27
2023-01-29T12:06:32.609Z,-0.17
2023-01-29T12:09:15.968Z,0.00
2023-01-29T12:11:44.233Z,-0.25
2023-01-29T12:14:40.893Z,0.06
2023-01-29T12:17:18.391Z,0.24
2023-01-29T12:20:07.104Z,-0.10
2023-01-29T12:22:54.637Z,-0.16
2023-01-29T12:25:23.224Z,-0.24
2023-01-29T12:27:58.817Z,0.17
2023-01-29T12:30:44.361Z,0.31
2023-01-29T12:33:21.197Z,-0.01
2023-01-29T12:35:50.942Z,0.12
2023-01-29T12:38:17.689Z,0.28
2023-01-29T12:40:47.551Z,0.34
2023-01-29T12:43:23.639Z,-0.20
2023-01-29T12:45:54.134Z,-0.38
2023-01-29T12:48:31.275Z,0.24
2023-01-29T12:51:09.286Z,0.06
2023-01-29T12:53:39.591Z,-0.25
2023-01-29T12:56:11.212Z,-0.45
2023-01-29T12:58:40.998Z,-0.25
2023-01-29T13:01:22.068Z,-0.07
2023-01-29T13:04:25.605Z,-0.02
2023-01-29T13:06:55.222Z,-0.05
2023-01-29T13:09:25.665Z,-0.36
2023-01-29T13:12:07.124Z,-0.16
2023-01-29T13:14:41.275Z,-0.31
2023-01-29T13:17:12.847Z,0.15
2023-01-29T13:19:45.715Z,0.37
2023-01-29T13:22:32.462Z,-0.12
2023-01-29T13:25:05.050Z,-0.02
2023-01-29T13:27:33.621Z,-0.06
2023-01-29T13:30:00.656Z,0.38
2023-01-29T13:32:28.436Z,-0.03
2023-01-29T13:35:00.028Z,-0.04
2023-01-29T13:37:40.132Z,-0.05
2023-01-29T13:40:08.906Z,0.08
2023-01-29T13:42:48.563Z,0.01
2023-01-29T13:45:21.501Z,-0.10
2023-01-29T13:47:48.912Z,0.05
2023-01-29T13:50:29.476Z,-0.05
2023-01-29T13:53:01.789Z,0.40
2023-01-29T13:55:40.401Z,0.38
2023-01-29T13:58:07.943Z,0.17
2023-01-29T14:00:36.364Z,0.03
2023-01-29T14:03:14.047Z,0.22
2023-01-29T14:06:13.924Z,0.35
2023-01-29T14:08:46.529Z,-0.03
2023-01-29T14:11:16.173Z,-0.03
2023-01-29T14:13:43.682Z,-0.12
2023-01-29T14:16:14.921Z,-0.22
2023-01-29T14:18:56.611Z,-0.11
2023-01-29T14:21:35.076Z,0.21
2023-01-29T14:24:18.798Z,-0.16
2023-01-29T14:26:48.220Z,0.04
2023-01-29T14:29:35.416Z,0.01
2023-01-29T14:32:08.891Z,-0.29
2023-01-29T14:34:36.717Z,0.13
2023-01-29T14:37:24.404Z,-0.13
2023-01-29T14:39:57.629Z,-0.25
2023-01-29T14:42:36.273Z,-0.37
2023-01-29T14:45:21.567Z,-0.29
2023-01-29T14:47:57.499Z,-0.41
2023-01-29T14:50:31.726Z,-0.38
2023-01-29T14:53:16.978Z,-0.22
2023-01-29T14:56:02.965Z,-0.12
2023-01-29T14:58:51.079Z,-0.06
2023-01-29T15:01:24.567Z,-0.36
2023-01-29T15:04:14.375Z,-0.30
2023-01-29T15:07:00.781Z,-0.44
2023-01-29T15:09:45.905Z,-0.28
2023-01-29T15:12:41.645Z,-0.01
2023-01-29T15:15:33.665Z,-0.17
2023-01-29T15:18:17.959Z,-0.30
2023-01-29T15:20:44.571Z,-0.50
2023-01-29T15:23:27.639Z,-0.52
2023-01-29T15:26:01.698Z,-0.52
2023-01-29T15:28:35.385Z,-0.78
2023-01-29T15:31:11.964Z,-0.57
2023-01-29T15:33:38.867Z,-0.70
2023-01-29T15:36:08.188Z,-0.90
2023-01-29T15:38:38.116Z,-1.17
2023-01-29T15:41:18.635Z,-0.78
2023-01-29T15:44:01.592Z,-0.82
2023-01-29T15:46:42.014Z,-0.63
2023-01-29T15:49:17.956Z,-0.67
2023-01-29T15:51:48.142Z,-0.78
2023-01-29T15:54:20.902Z,-0.75
2023-01-29T15:56:48.366Z,-1.00
2023-01-29T15:59:17.670Z,-1.00
2023-01-29T16:01:45.555Z,-0.95
2023-01-29T16:04:15.265Z,-0.82
2023-01-29T16:06:43.725Z,-1.11
2023-01-29T16:09:15.693Z,-0.94
2023-01-29T16:11:43.492Z,-1.15
2023-01-29T16:14:12.921Z,-1.25
2023-01-29T16:16:39.259Z,-1.37
2023-01-29T16:19:22.332Z,-1.12
2023-01-29T16:22:00.980Z,-1.17
2023-01-29T16:24:28.153Z,-1.17
2023-01-29T16:27:23.703Z,-1.06
2023-01-29T16:29:51.136Z,-1.41
2023-01-29T16:32:24.234Z,-1.48
2023-01-29T16:34:58.553Z,-1.53
2023-01-29T16:37:32.360Z,-1.54
2023-01-29T16:39:59.089Z,-1.34
2023-01-29T16:42:26.581Z,-1.46
2023-01-29T16:44:57.330Z,-1.47
2023-01-29T16:47:43.692Z,-1.65
2023-01-29T16:50:35.978Z,-1.60
2023-01-29T16:53:12.832Z,-1.69
2023-01-29T16:55:41.174Z,-1.68
2023-01-29T16:58:25.344Z,-1.46
2023-01-29T17:00:57.744Z,-1.70
2023-01-29T17:03:25.596Z,-1.69
2023-01-29T17:05:55.205Z,-1.65
2023-01-29T17:08:32.505Z,-1.57
2023-01-29T17:10:59.471Z,-1.52
2023-01-29T17:13:45.283Z,-1.51
2023-01-29T17:16:31.395Z,-1.90
2023-01-29T17:18:58.540Z,-1.72
2023-01-29T17:21:25.377Z,-1.51
2023-01-29T17:23:53.797Z,-1.41
2023-01-29T17:26:20.916Z,-1.56
2023-01-29T17:28:49.914Z,-1.40
2023-01-29T17:31:17.340Z,-1.37
2023-01-29T17:33:44.112Z,-1.31
2023-01-29T17:36:12.629Z,-1.29
2023-01-29T17:38:39.334Z,-1.29
2023-01-29T17:41:24.732Z,-1.32
2023-01-29T17:43:51.059Z,-1.33
2023-01-29T17:46:19.080Z,-1.38
2023-01-29T17:48:46.082Z,-1.53
2023-01-29T17:51:14.571Z,-1.58
2023-01-29T17:53:47.221Z,-1.69
2023-01-29T17:56:30.986Z,-1.64
2023-01-29T17:58:57.309Z,-1.56
2023-01-29T18:01:23.796Z,-1.60
2023-01-29T18:03:51.271Z,-1.55
2023-01-29T18:06:26.130Z,-1.55
2023-01-29T18:08:52.667Z,-1.60
2023-01-29T18:11:25.221Z,-1.62
2023-01-29T18:13:51.674Z,-1.70
2023-01-29T18:16:18.543Z,-1.78
2023-01-29T18:18:44.943Z,-1.90
2023-01-29T18:21:11.318Z,-2.02
2023-01-29T18:23:37.741Z,-2.21
2023-01-29T18:26:04.481Z,-2.30
2023-01-29T18:28:31.562Z,-2.48
2023-01-29T18:30:57.933Z,-2.52
2023-01-29T18:33:25.885Z,-2.56
2023-01-29T18:35:54.960Z,-2.55
2023-01-29T18:38:21.508Z,-2.65
2023-01-29T18:40:47.916Z,-2.64
2023-01-29T18:43:14.659Z,-2.73
2023-01-29T18:45:41.169Z,-2.87
2023-01-29T18:48:12.638Z,-3.04
2023-01-29T18:50:41.129Z,-3.11
2023-01-29T18:53:07.697Z,-3.06
2023-01-29T18:55:36.140Z,-3.02
2023-01-29T18:58:28.997Z,-3.06
2023-01-29T19:00:48.900Z,-3.00
2023-01-29T19:03:15.362Z,-3.08
2023-01-29T19:05:42.735Z,-3.11
2023-01-29T19:08:09.653Z,-3.09
2023-01-29T19:10:36.443Z,-3.21
2023-01-29T19:13:04.357Z,-3.18
2023-01-29T19:15:32.374Z,-3.20
2023-01-29T19:17:59.008Z,-3.31
2023-01-29T19:20:31.267Z,-3.13
2023-01-29T19:22:57.695Z,-3.08
2023-01-29T19:25:24.070Z,-3.31
2023-01-29T19:27:51.607Z,-3.29
2023-01-29T19:30:19.016Z,-3.34
2023-01-29T19:32:45.401Z,-3.36
2023-01-29T19:35:11.871Z,-3.31
2023-01-29T19:37:39.215Z,-3.45
2023-01-29T19:40:05.837Z,-3.19
2023-01-29T19:42:32.274Z,-3.54
2023-01-29T19:44:58.604Z,-3.58
2023-01-29T19:47:25.004Z,-3.56
2023-01-29T19:49:53.398Z,-3.55
2023-01-29T19:52:50.328Z,-3.57
2023-01-29T19:55:18.303Z,-3.62
2023-01-29T19:57:45.055Z,-3.44
2023-01-29T20:00:12.196Z,-3.40
2023-01-29T20:02:38.684Z,-3.52
2023-01-29T20:05:05.639Z,-3.37
2023-01-29T20:07:32.020Z,-3.32
2023-01-29T20:09:58.402Z,-3.33
2023-01-29T20:12:27.004Z,-3.52
2023-01-29T20:14:53.375Z,-3.37
2023-01-29T20:17:20.792Z,-3.37
2023-01-29T20:19:53.237Z,-3.34
2023-01-29T20:22:19.789Z,-3.38
2023-01-29T20:24:46.322Z,-3.59
2023-01-29T20:27:12.684Z,-3.57
2023-01-29T20:29:39.433Z,-3.55
2023-01-29T20:32:07.932Z,-3.54
2023-01-29T20:34:41.803Z,-3.78
2023-01-29T20:37:08.233Z,-3.69
2023-01-29T20:39:34.687Z,-3.82
2023-01-29T20:42:01.014Z,-3.79
2023-01-29T20:44:27.346Z,-3.76
2023-01-29T20:46:53.835Z,-3.71
2023-01-29T20:49:21.049Z,-3.83
2023-01-29T20:51:47.396Z,-3.81
2023-01-29T20:54:13.920Z,-3.76
2023-01-29T20:56:45.556Z,-3.77
2023-01-29T20:59:13.375Z,-3.72
2023-01-29T21:01:40.293Z,-3.86
2023-01-29T21:04:06.647Z,-3.96
2023-01-29T21:06:33.442Z,-3.99
2023-01-29T21:08:59.849Z,-3.90
2023-01-29T21:11:26.421Z,-4.04
2023-01-29T21:13:57.580Z,-4.13
2023-01-29T21:16:33.032Z,-4.28
2023-01-29T21:18:59.723Z,-4.37
2023-01-29T21:21:26.782Z,-4.37
2023-01-29T21:23:53.352Z,-4.38
2023-01-29T21:26:21.105Z,-4.50
2023-01-29T21:28:47.497Z,-4.39
2023-01-29T21:31:14.559Z,-4.68
2023-01-29T21:33:41.964Z,-4.63
2023-01-29T21:36:10.232Z,-4.54
2023-01-29T21:38:36.996Z,-4.57
2023-01-29T21:41:04.790Z,-4.44
2023-01-29T21:43:31.275Z,-4.42
2023-01-29T21:46:14.100Z,-4.30
2023-01-29T21:48:40.893Z,-4.29
2023-01-29T21:51:08.573Z,-4.20
2023-01-29T21:53:35.089Z,-4.28
2023-01-29T21:56:02.147Z,-4.17
2023-01-29T21:58:28.825Z,-4.24
2023-01-29T22:00:55.275Z,-4.27
2023-01-29T22:03:21.854Z,-4.27
2023-01-29T22:05:50.055Z,-4.28
2023-01-29T22:08:17.910Z,-4.44
2023-01-29T22:10:44.449Z,-4.31
2023-01-29T22:13:11.096Z,-4.33
2023-01-29T22:15:37.420Z,-4.38
2023-01-29T22:18:03.951Z,-4.29
2023-01-29T22:20:31.065Z,-4.37
2023-01-29T22:22:58.798Z,-4.28
2023-01-29T22:25:25.153Z,-4.33
2023-01-29T22:27:51.774Z,-4.39
2023-01-29T22:30:18.659Z,-4.37
2023-01-29T22:32:46.330Z,-4.42
2023-01-29T22:35:12.688Z,-4.50
2023-01-29T22:37:39.028Z,-4.60
2023-01-29T22:40:05.867Z,-4.48
2023-01-29T22:42:32.317Z,-4.40
2023-01-29T22:44:58.623Z,-4.44
2023-01-29T22:47:25.033Z,-4.52
2023-01-29T22:49:52.426Z,-4.53
2023-01-29T22:52:22.171Z,-4.44
2023-01-29T22:54:48.549Z,-4.42
2023-01-29T22:57:15.312Z,-4.37
2023-01-29T22:59:43.850Z,-4.57
2023-01-29T23:02:10.175Z,-4.53
2023-01-29T23:04:36.777Z,-4.54
2023-01-29T23:07:03.397Z,-4.50
2023-01-29T23:09:29.741Z,-4.58
2023-01-29T23:11:56.066Z,-4.74
2023-01-29T23:14:22.448Z,-4.88
2023-01-29T23:16:59.979Z,-4.89
2023-01-29T23:19:27.131Z,-4.82
2023-01-29T23:21:53.471Z,-4.77
2023-01-29T23:24:19.829Z,-4.79
2023-01-29T23:27:04.917Z,-4.72
2023-01-29T23:29:31.267Z,-4.80
2023-01-29T23:31:57.657Z,-4.70
2023-01-29T23:34:24.097Z,-4.67
2023-01-29T23:36:50.543Z,-4.67
2023-01-29T23:39:17.028Z,-4.66
2023-01-29T23:41:43.480Z,-4.65
2023-01-29T23:44:10.107Z,-4.70
2023-01-29T23:46:36.553Z,-4.70
2023-01-29T23:49:03.113Z,-4.66
2023-01-29T23:51:29.497Z,-4.75
2023-01-29T23:53:55.936Z,-4.68
2023-01-29T23:56:22.499Z,-4.58
2023-01-29T23:58:52.440Z,-4.56
